EDDB/SXF METAR and TAF weather

Enter ICAO airport designator
Station Type Date Time Source
EDDB METAR 2019/10/18 05:50 UTC NOAA

EDDB 180550Z 18008KT 9999 SCT040 12/11 Q1011 NOSIG


Station Type Date Time Source
EDDB Decoded METAR 2019/10/18 05:50 UTC NOAA

Berlin-Schoenefeld, Germany (EDDB) 52-23N 013-31E 50M
Oct 18, 2019 - 01:50 AM EDT / 2019.10.18 0550 UTC
Wind: from the S (180 degrees) at 9 MPH (8 KT):0
Visibility: greater than 7 mile(s):0
Sky conditions: partly cloudy
Temperature: 53 F (12 C)
Dew Point: 51 F (11 C)
Relative Humidity: 93%
Pressure (altimeter): 29.85 in. Hg (1011 hPa)
ob: EDDB 180550Z 18008KT 9999 SCT040 12/11 Q1011 NOSIG
cycle: 6

Station Type Date Time Source
EDDB TAF 2019/10/18 06:27 UTC NOAA

TAF TAF EDDB 180500Z 1806/1906 19007KT 9999 SCT015
BECMG 1808/1810 20012KT
BECMG 1816/1818 20006KT PROB30
TEMPO 1816/1819 SHRA SCT020CB

Example: see airport list